Time;durP1;ratioP1;P1;durP2;ratioP2;P2;SDS_P1;SDS_P2;PMS_P1;PMS_P2;Temp;Humidity;BMP_temperature;BMP_pressure;BME280_temperature;BME280_humidity;BME280_pressure;Samples;Min_cycle;Max_cycle;Signal;HPM_P1;HPM_P2
2023/01/11 00:02:05;;;;;;;3.22;1.50;;;;;;;;;;8244736;28;20204;-62
2023/01/11 00:06:07;;;;;;;3.85;1.77;;;;;;;;;;8243380;28;20804;-62
2023/01/11 00:10:07;;;;;;;6.35;1.95;;;;;;;;;;8241425;28;20131;-62
2023/01/11 00:14:07;;;;;;;4.72;2.25;;;;;;;;;;8243500;28;20089;-62
2023/01/11 00:18:08;;;;;;;2.35;1.60;;;;;;;;;;8243580;28;20026;-62
2023/01/11 00:22:08;;;;;;;4.90;1.63;;;;;;;;;;8244541;28;20026;-62
2023/01/11 00:26:11;;;;;;;13.07;2.60;;;;;;;;;;8245826;28;20029;-62
2023/01/11 00:30:11;;;;;;;5.93;1.50;;;;;;;;;;8248045;28;20034;-62
2023/01/11 00:34:11;;;;;;;5.13;1.50;;;;;;;;;;8253244;28;20029;-62
2023/01/11 00:38:42;;;;;;;4.75;1.52;;;;;;;;;;8252958;28;20022;-62
2023/01/11 00:51:10;;;;;;;4.97;1.60;;;;;;;;;;8250483;28;20088;-62
2023/01/11 00:55:10;;;;;;;6.07;1.47;;;;;;;;;;8252359;28;20132;-62
2023/01/11 00:59:11;;;;;;;4.35;1.58;;;;;;;;;;8252431;28;20269;-62
2023/01/11 01:03:11;;;;;;;9.85;2.00;;;;;;;;;;8251410;28;20038;-62
2023/01/11 01:07:11;;;;;;;6.57;1.88;;;;;;;;;;8252954;28;20834;-62
2023/01/11 01:11:11;;;;;;;5.15;1.77;;;;;;;;;;8251263;28;20034;-62
2023/01/11 01:15:12;;;;;;;4.57;1.70;;;;;;;;;;8249318;28;20026;-62
2023/01/11 01:19:12;;;;;;;3.90;1.35;;;;;;;;;;8251769;28;20269;-62
2023/01/11 01:23:12;;;;;;;5.38;1.80;;;;;;;;;;8249199;28;20036;-62
2023/01/11 01:27:16;;;;;;;2.83;1.10;;;;;;;;;;8251486;28;20104;-62
2023/01/11 01:31:16;;;;;;;3.50;1.63;;;;;;;;;;8247530;28;20041;-62
2023/01/11 01:35:16;;;;;;;6.63;1.67;;;;;;;;;;8248009;28;20030;-62
2023/01/11 01:39:17;;;;;;;4.35;1.25;;;;;;;;;;8244222;28;20026;-62
2023/01/11 01:43:17;;;;;;;4.80;1.52;;;;;;;;;;8251806;28;20026;-62
2023/01/11 01:47:19;;;;;;;5.53;1.83;;;;;;;;;;8248954;28;20475;-62
2023/01/11 01:51:23;;;;;;;4.43;1.50;;;;;;;;;;8248917;28;20291;-62
2023/01/11 01:55:32;;;;;;;2.55;1.25;;;;;;;;;;8250839;28;20017;-62
2023/01/11 01:59:32;;;;;;;4.22;1.40;;;;;;;;;;8250962;28;20072;-63
2023/01/11 02:03:32;;;;;;;2.50;1.05;;;;;;;;;;8249297;28;20069;-62
2023/01/11 02:07:34;;;;;;;4.80;1.58;;;;;;;;;;8251080;28;20041;-62
2023/01/11 02:11:42;;;;;;;4.22;1.05;;;;;;;;;;8249834;28;20097;-62
2023/01/11 02:15:42;;;;;;;2.58;1.17;;;;;;;;;;8250334;28;20042;-62
2023/01/11 02:20:12;;;;;;;3.50;1.23;;;;;;;;;;8250717;28;20026;-62
2023/01/11 02:24:21;;;;;;;2.42;1.38;;;;;;;;;;8240525;28;20135;-62
2023/01/11 02:28:37;;;;;;;3.40;1.30;;;;;;;;;;8249216;28;20064;-62
2023/01/11 02:32:46;;;;;;;1.42;1.10;;;;;;;;;;8251477;28;20044;-63
2023/01/11 02:36:57;;;;;;;2.35;1.40;;;;;;;;;;8251452;28;20890;-62
2023/01/11 02:40:57;;;;;;;1.65;1.17;;;;;;;;;;8250076;28;20053;-62
2023/01/11 02:45:24;;;;;;;2.33;1.25;;;;;;;;;;8252456;28;20517;-62
2023/01/11 02:49:33;;;;;;;4.05;1.70;;;;;;;;;;8245156;28;20587;-62
2023/01/11 02:53:43;;;;;;;1.48;1.30;;;;;;;;;;8250843;28;20029;-62
2023/01/11 02:57:43;;;;;;;5.82;1.30;;;;;;;;;;8247904;28;20132;-62
2023/01/11 03:01:44;;;;;;;4.00;1.45;;;;;;;;;;8250065;28;20120;-62
2023/01/11 03:05:50;;;;;;;4.07;1.23;;;;;;;;;;8250208;28;20347;-63
2023/01/11 03:10:20;;;;;;;5.65;1.30;;;;;;;;;;8249264;28;20068;-62
2023/01/11 03:14:20;;;;;;;3.25;1.50;;;;;;;;;;8176409;28;20696;-62
2023/01/11 03:18:21;;;;;;;3.92;1.30;;;;;;;;;;8248989;28;20064;-62
2023/01/11 03:22:32;;;;;;;3.38;1.40;;;;;;;;;;8249927;28;20026;-63
2023/01/11 03:26:40;;;;;;;4.03;1.48;;;;;;;;;;8250047;28;20049;-63
2023/01/11 03:30:56;;;;;;;3.28;1.40;;;;;;;;;;8250297;28;20149;-63
2023/01/11 03:35:15;;;;;;;2.22;1.20;;;;;;;;;;8250918;28;20073;-63
2023/01/11 03:39:21;;;;;;;4.93;1.10;;;;;;;;;;8249378;28;20030;-63
2023/01/11 03:43:22;;;;;;;3.90;1.17;;;;;;;;;;8248714;28;20021;-62
2023/01/11 03:47:23;;;;;;;1.33;0.80;;;;;;;;;;8249734;28;20034;-63
2023/01/11 03:51:26;;;;;;;2.97;1.08;;;;;;;;;;8248126;28;20038;-63
2023/01/11 03:55:28;;;;;;;2.33;1.00;;;;;;;;;;8247937;28;20025;-63
2023/01/11 03:59:29;;;;;;;1.88;0.80;;;;;;;;;;8250023;28;20561;-63
2023/01/11 04:03:29;;;;;;;1.87;0.70;;;;;;;;;;8254767;28;20046;-62
2023/01/11 04:07:29;;;;;;;1.45;0.90;;;;;;;;;;8254619;28;21282;-62
2023/01/11 04:11:29;;;;;;;0.63;0.52;;;;;;;;;;8253331;28;20131;-63
2023/01/11 04:15:31;;;;;;;2.40;0.70;;;;;;;;;;8253781;28;20061;-63
2023/01/11 04:19:31;;;;;;;0.73;0.73;;;;;;;;;;8254106;28;20153;-62
2023/01/11 04:23:31;;;;;;;1.35;0.70;;;;;;;;;;8257095;28;20061;-63
2023/01/11 04:27:32;;;;;;;1.15;0.70;;;;;;;;;;8253446;28;20018;-63
2023/01/11 04:31:32;;;;;;;0.50;0.50;;;;;;;;;;8253604;28;20052;-62
2023/01/11 04:35:32;;;;;;;0.60;0.60;;;;;;;;;;8253050;28;20343;-63
2023/01/11 04:39:32;;;;;;;1.45;0.52;;;;;;;;;;8253811;28;20265;-63
2023/01/11 04:43:32;;;;;;;0.70;0.70;;;;;;;;;;8254319;28;20460;-63
2023/01/11 04:47:33;;;;;;;1.67;0.80;;;;;;;;;;8253303;28;20069;-62
2023/01/11 04:51:33;;;;;;;0.60;0.60;;;;;;;;;;8253253;28;20028;-63
2023/01/11 04:55:33;;;;;;;0.55;0.55;;;;;;;;;;8255342;28;20021;-63
2023/01/11 04:59:33;;;;;;;1.05;0.70;;;;;;;;;;8253950;28;20029;-63
2023/01/11 05:03:33;;;;;;;1.00;0.80;;;;;;;;;;8253434;28;20102;-63
2023/01/11 05:07:33;;;;;;;1.83;0.93;;;;;;;;;;8254552;28;20037;-63
2023/01/11 05:11:34;;;;;;;1.48;0.85;;;;;;;;;;8251218;28;20094;-63
2023/01/11 05:15:34;;;;;;;0.95;0.65;;;;;;;;;;8253862;28;20057;-63
2023/01/11 05:19:34;;;;;;;0.70;0.70;;;;;;;;;;8253062;28;20065;-63
2023/01/11 05:23:35;;;;;;;0.60;0.60;;;;;;;;;;8252362;28;20045;-62
2023/01/11 05:27:35;;;;;;;1.88;0.60;;;;;;;;;;8253344;28;20042;-63
2023/01/11 05:31:37;;;;;;;0.50;0.50;;;;;;;;;;8252250;28;20089;-62
2023/01/11 05:35:37;;;;;;;1.13;0.70;;;;;;;;;;8249913;28;20026;-63
2023/01/11 05:39:37;;;;;;;0.60;0.60;;;;;;;;;;8251110;28;20045;-62
2023/01/11 05:47:56;;;;;;;0.70;0.70;;;;;;;;;;8245056;28;20040;-62
2023/01/11 05:51:57;;;;;;;1.58;0.68;;;;;;;;;;8253392;28;20740;-62
2023/01/11 05:55:57;;;;;;;1.10;0.70;;;;;;;;;;8249568;28;20032;-63
2023/01/11 05:59:57;;;;;;;0.77;0.60;;;;;;;;;;8249765;28;20032;-62
2023/01/11 06:03:57;;;;;;;0.50;0.50;;;;;;;;;;8249982;28;20052;-63
2023/01/11 06:07:58;;;;;;;0.85;0.60;;;;;;;;;;8248716;28;20109;-63
2023/01/11 06:11:58;;;;;;;0.80;0.60;;;;;;;;;;8247656;28;20030;-62
2023/01/11 06:16:12;;;;;;;0.77;0.77;;;;;;;;;;8250287;28;20036;-63
2023/01/11 06:20:12;;;;;;;0.57;0.57;;;;;;;;;;8249757;28;20029;-63
2023/01/11 06:24:12;;;;;;;0.80;0.63;;;;;;;;;;8249115;28;20782;-62
2023/01/11 06:28:12;;;;;;;1.35;0.50;;;;;;;;;;8247546;28;20760;-63
2023/01/11 06:32:12;;;;;;;0.50;0.50;;;;;;;;;;8250204;28;20057;-63
2023/01/11 06:36:13;;;;;;;4.07;0.57;;;;;;;;;;8249973;28;20037;-62
2023/01/11 06:40:13;;;;;;;1.13;0.50;;;;;;;;;;8249299;28;20740;-63
2023/01/11 06:44:14;;;;;;;0.50;0.50;;;;;;;;;;8249524;28;20022;-63
2023/01/11 06:48:14;;;;;;;1.60;0.70;;;;;;;;;;8249542;28;20034;-63
2023/01/11 06:52:15;;;;;;;0.50;0.50;;;;;;;;;;8249899;28;20044;-63
2023/01/11 06:56:17;;;;;;;0.45;0.45;;;;;;;;;;8249482;28;20030;-63
2023/01/11 07:00:18;;;;;;;0.63;0.50;;;;;;;;;;8249979;28;20037;-63
2023/01/11 07:04:18;;;;;;;0.50;0.50;;;;;;;;;;8249607;28;20026;-63
2023/01/11 07:08:19;;;;;;;0.50;0.50;;;;;;;;;;8249667;28;20026;-63
2023/01/11 07:12:19;;;;;;;0.45;0.45;;;;;;;;;;8249862;28;20025;-63
2023/01/11 07:16:19;;;;;;;0.35;0.35;;;;;;;;;;8250287;28;20086;-65
2023/01/11 07:20:20;;;;;;;0.57;0.57;;;;;;;;;;8249149;28;20396;-63
2023/01/11 07:24:23;;;;;;;1.27;0.52;;;;;;;;;;8250854;28;20049;-63
2023/01/11 07:28:23;;;;;;;0.50;0.50;;;;;;;;;;8248834;28;20033;-63
2023/01/11 07:32:23;;;;;;;0.40;0.40;;;;;;;;;;8249916;28;20042;-63
2023/01/11 07:36:23;;;;;;;0.60;0.50;;;;;;;;;;8253640;28;20033;-64
2023/01/11 07:40:23;;;;;;;0.40;0.40;;;;;;;;;;8253564;28;20434;-63
2023/01/11 07:44:24;;;;;;;0.40;0.40;;;;;;;;;;8257167;28;20501;-63
2023/01/11 07:48:25;;;;;;;0.47;0.40;;;;;;;;;;8254910;28;20057;-63
2023/01/11 07:52:25;;;;;;;0.40;0.40;;;;;;;;;;8235921;28;20966;-63
2023/01/11 07:56:25;;;;;;;0.52;0.40;;;;;;;;;;8256739;28;20018;-63
2023/01/11 08:00:25;;;;;;;0.30;0.30;;;;;;;;;;8254851;28;20053;-63
2023/01/11 08:04:25;;;;;;;0.82;0.82;;;;;;;;;;8254445;28;20022;-63
2023/01/11 08:08:26;;;;;;;0.30;0.30;;;;;;;;;;8254482;28;20038;-63
2023/01/11 08:16:45;;;;;;;0.30;0.30;;;;;;;;;;8254279;28;20060;-63
2023/01/11 08:20:46;;;;;;;0.20;0.20;;;;;;;;;;8254991;28;20025;-64
2023/01/11 08:24:46;;;;;;;0.30;0.30;;;;;;;;;;8254306;28;20568;-63
2023/01/11 08:28:46;;;;;;;0.35;0.35;;;;;;;;;;8240971;28;20125;-63
2023/01/11 08:32:47;;;;;;;0.50;0.40;;;;;;;;;;8255393;28;20034;-63
2023/01/11 08:36:47;;;;;;;0.50;0.50;;;;;;;;;;8253203;28;20149;-64
2023/01/11 08:40:47;;;;;;;0.40;0.40;;;;;;;;;;8253652;28;20037;-63
2023/01/11 08:44:47;;;;;;;0.47;0.43;;;;;;;;;;8255720;28;20100;-63
2023/01/11 08:48:47;;;;;;;0.30;0.30;;;;;;;;;;8251815;28;20053;-63
2023/01/11 08:52:49;;;;;;;0.43;0.43;;;;;;;;;;8237731;28;20119;-63
2023/01/11 08:56:49;;;;;;;1.00;0.40;;;;;;;;;;8237318;28;20848;-63
2023/01/11 09:00:50;;;;;;;0.40;0.40;;;;;;;;;;8252043;28;20041;-63
2023/01/11 09:04:50;;;;;;;0.30;0.30;;;;;;;;;;8254371;28;20064;-63
2023/01/11 09:08:50;;;;;;;0.40;0.40;;;;;;;;;;8254172;28;20104;-63
2023/01/11 09:12:51;;;;;;;0.32;0.32;;;;;;;;;;8251286;28;20030;-63
2023/01/11 09:16:52;;;;;;;0.40;0.40;;;;;;;;;;8253579;28;20026;-63
2023/01/11 09:20:52;;;;;;;0.50;0.50;;;;;;;;;;8251608;28;20772;-63
2023/01/11 09:24:54;;;;;;;0.50;0.50;;;;;;;;;;8250922;28;20022;-63
2023/01/11 09:28:54;;;;;;;0.68;0.68;;;;;;;;;;8251732;28;20029;-63
2023/01/11 09:32:55;;;;;;;0.60;0.60;;;;;;;;;;8247722;28;20352;-63
2023/01/11 09:36:58;;;;;;;0.50;0.50;;;;;;;;;;8252469;28;20812;-63
2023/01/11 09:41:08;;;;;;;0.50;0.50;;;;;;;;;;8253072;28;20026;-63
2023/01/11 09:45:13;;;;;;;0.45;0.45;;;;;;;;;;8251066;28;20144;-63
2023/01/11 09:49:13;;;;;;;;;;;;;;;;;;8252641;28;20065;-64
2023/01/11 09:53:30;;;;;;;0.50;0.50;;;;;;;;;;8252020;28;19913;-63
2023/01/11 09:57:41;;;;;;;0.63;0.40;;;;;;;;;;8249939;28;20842;-63
2023/01/11 10:01:45;;;;;;;0.50;0.50;;;;;;;;;;8252595;28;21016;-64
2023/01/11 10:06:05;;;;;;;0.60;0.52;;;;;;;;;;8250556;28;20068;-63
2023/01/11 10:10:23;;;;;;;0.40;0.40;;;;;;;;;;8250718;28;20072;-63
2023/01/11 10:14:44;;;;;;;0.50;0.50;;;;;;;;;;8249811;28;20765;-63
2023/01/11 10:19:15;;;;;;;0.50;0.50;;;;;;;;;;8250247;28;20305;-64
2023/01/11 10:23:23;;;;;;;0.50;0.50;;;;;;;;;;8237972;28;21098;-63
2023/01/11 10:27:37;;;;;;;0.60;0.60;;;;;;;;;;8248407;28;20091;-63
2023/01/11 10:31:58;;;;;;;0.40;0.40;;;;;;;;;;8250046;28;20046;-64
2023/01/11 10:44:43;;;;;;;0.40;0.40;;;;;;;;;;8249729;28;20738;-63
2023/01/11 10:48:44;;;;;;;0.47;0.47;;;;;;;;;;8246050;28;20044;-63
2023/01/11 10:52:50;;;;;;;0.70;0.50;;;;;;;;;;8250233;28;20303;-64
2023/01/11 10:57:12;;;;;;;0.50;0.50;;;;;;;;;;8246946;28;20924;-64
2023/01/11 11:01:19;;;;;;;0.40;0.40;;;;;;;;;;8249310;28;20540;-64
2023/01/11 11:05:19;;;;;;;0.57;0.43;;;;;;;;;;8250149;28;20083;-63
2023/01/11 11:09:26;;;;;;;0.47;0.47;;;;;;;;;;8248648;28;20725;-63
2023/01/11 11:13:45;;;;;;;0.40;0.40;;;;;;;;;;8249350;28;21104;-63
2023/01/11 11:17:48;;;;;;;0.45;0.40;;;;;;;;;;8249006;28;20128;-63
2023/01/11 11:21:51;;;;;;;0.40;0.40;;;;;;;;;;8250068;28;20459;-64
2023/01/11 11:25:55;;;;;;;0.30;0.30;;;;;;;;;;8246952;28;20037;-64
2023/01/11 11:29:55;;;;;;;0.80;0.60;;;;;;;;;;8247751;28;20051;-64
2023/01/11 11:33:56;;;;;;;0.40;0.40;;;;;;;;;;8244044;28;20621;-63
2023/01/11 11:37:57;;;;;;;0.40;0.40;;;;;;;;;;8246357;28;20377;-64
2023/01/11 11:42:13;;;;;;;0.32;0.32;;;;;;;;;;8245802;28;20637;-64
2023/01/11 11:46:13;;;;;;;0.68;0.40;;;;;;;;;;8246700;28;20042;-64
2023/01/11 11:50:19;;;;;;;0.40;0.40;;;;;;;;;;8245556;28;20721;-63
2023/01/11 11:54:22;;;;;;;0.50;0.50;;;;;;;;;;8243588;28;20101;-64
2023/01/11 11:58:23;;;;;;;0.73;0.40;;;;;;;;;;8244492;28;20077;-64
2023/01/11 12:02:26;;;;;;;0.45;0.45;;;;;;;;;;8244412;28;20044;-64
2023/01/11 12:06:27;;;;;;;1.93;0.50;;;;;;;;;;8244337;28;20065;-64
2023/01/11 12:10:29;;;;;;;0.50;0.50;;;;;;;;;;8227541;28;20051;-64
2023/01/11 12:14:30;;;;;;;0.40;0.40;;;;;;;;;;8247121;28;20083;-64
2023/01/11 12:18:37;;;;;;;0.50;0.50;;;;;;;;;;8226847;28;20052;-64
2023/01/11 12:22:37;;;;;;;0.50;0.50;;;;;;;;;;8246650;28;20084;-64
2023/01/11 12:26:49;;;;;;;1.42;0.63;;;;;;;;;;8250743;28;20104;-65
2023/01/11 12:30:57;;;;;;;1.75;0.50;;;;;;;;;;8250862;28;20046;-64
2023/01/11 12:35:16;;;;;;;0.50;0.50;;;;;;;;;;8250625;28;20529;-65
2023/01/11 12:39:19;;;;;;;1.85;0.68;;;;;;;;;;8250791;28;20017;-64
2023/01/11 12:43:24;;;;;;;0.98;0.60;;;;;;;;;;8251216;28;20100;-64
2023/01/11 12:47:30;;;;;;;0.60;0.60;;;;;;;;;;8249971;28;20038;-64
2023/01/11 12:51:47;;;;;;;0.70;0.70;;;;;;;;;;8248825;28;20021;-64
2023/01/11 12:56:14;;;;;;;0.60;0.60;;;;;;;;;;8251090;28;20164;-63
2023/01/11 13:00:14;;;;;;;3.38;0.70;;;;;;;;;;8249324;28;20108;-64
2023/01/11 13:04:19;;;;;;;0.85;0.80;;;;;;;;;;8251925;28;20022;-64
2023/01/11 13:08:25;;;;;;;0.93;0.60;;;;;;;;;;8249557;28;20115;-64
2023/01/11 13:12:25;;;;;;;0.80;0.80;;;;;;;;;;8249084;28;20060;-64
2023/01/11 13:16:29;;;;;;;0.85;0.75;;;;;;;;;;8251009;28;20893;-64
2023/01/11 13:20:42;;;;;;;1.15;0.80;;;;;;;;;;8247440;28;20030;-64
2023/01/11 13:24:45;;;;;;;1.48;0.80;;;;;;;;;;8249382;28;20685;-63
2023/01/11 13:28:48;;;;;;;1.30;0.80;;;;;;;;;;8246932;28;20061;-64
2023/01/11 13:32:57;;;;;;;0.60;0.60;;;;;;;;;;8243452;28;20034;-64
2023/01/11 13:37:17;;;;;;;1.58;1.10;;;;;;;;;;8249117;28;20021;-64
2023/01/11 13:41:17;;;;;;;2.10;0.90;;;;;;;;;;8238217;28;20139;-64
2023/01/11 13:45:21;;;;;;;4.18;0.93;;;;;;;;;;8246353;28;20025;-64
2023/01/11 13:49:40;;;;;;;1.77;0.80;;;;;;;;;;8247619;28;20034;-64
2023/01/11 13:53:55;;;;;;;2.85;0.90;;;;;;;;;;8248571;28;20037;-64
2023/01/11 13:57:58;;;;;;;2.50;0.90;;;;;;;;;;8247794;28;20129;-64
2023/01/11 14:01:58;;;;;;;1.77;1.00;;;;;;;;;;8250309;28;20046;-64
2023/01/11 14:06:05;;;;;;;4.47;1.13;;;;;;;;;;8244574;28;20076;-64
2023/01/11 14:10:05;;;;;;;3.65;1.02;;;;;;;;;;8247061;28;20931;-64
2023/01/11 14:14:17;;;;;;;3.38;1.05;;;;;;;;;;8248333;28;20767;-64
2023/01/11 14:18:32;;;;;;;3.35;1.00;;;;;;;;;;8242420;28;20045;-64
2023/01/11 14:22:32;;;;;;;3.20;1.00;;;;;;;;;;8246596;28;20033;-63
2023/01/11 14:26:51;;;;;;;2.93;0.90;;;;;;;;;;8243593;28;20022;-64
2023/01/11 14:31:07;;;;;;;4.05;1.10;;;;;;;;;;8244415;28;20034;-64
2023/01/11 14:35:28;;;;;;;5.85;1.13;;;;;;;;;;8244179;28;20092;-63
2023/01/11 14:39:47;;;;;;;4.00;1.10;;;;;;;;;;8245451;28;20021;-63
2023/01/11 14:43:59;;;;;;;6.80;1.30;;;;;;;;;;8245983;28;20025;-63
2023/01/11 14:48:07;;;;;;;5.70;1.02;;;;;;;;;;8246178;28;20038;-64
2023/01/11 14:52:10;;;;;;;4.75;1.30;;;;;;;;;;8245935;28;20128;-64
2023/01/11 14:56:31;;;;;;;7.25;1.38;;;;;;;;;;8246026;28;20033;-64
2023/01/11 15:00:31;;;;;;;6.25;1.23;;;;;;;;;;8243922;28;20030;-64
2023/01/11 15:04:58;;;;;;;4.30;1.50;;;;;;;;;;8245173;28;20129;-64
2023/01/11 15:08:59;;;;;;;4.90;1.27;;;;;;;;;;8238653;28;20041;-64
2023/01/11 15:13:03;;;;;;;3.83;1.00;;;;;;;;;;8243720;28;20081;-63
2023/01/11 15:21:24;;;;;;;4.43;1.30;;;;;;;;;;8244676;28;20033;-64
2023/01/11 15:25:29;;;;;;;4.28;1.20;;;;;;;;;;8240479;28;20026;-63
2023/01/11 15:29:34;;;;;;;6.43;1.30;;;;;;;;;;8244328;28;20409;-64
2023/01/11 15:33:44;;;;;;;6.97;1.35;;;;;;;;;;8243847;28;20038;-64
2023/01/11 15:38:03;;;;;;;5.10;1.25;;;;;;;;;;8245162;28;20033;-64
2023/01/11 15:42:15;;;;;;;7.90;1.95;;;;;;;;;;8245734;28;20794;-63
2023/01/11 15:51:02;;;;;;;9.85;2.88;;;;;;;;;;8245909;23;20824;-71
2023/01/11 15:55:28;;;;;;;9.32;3.08;;;;;;;;;;8211972;28;20022;-71
2023/01/11 15:59:31;;;;;;;9.27;2.22;;;;;;;;;;8223937;28;20030;-71
2023/01/11 16:03:47;;;;;;;6.67;2.50;;;;;;;;;;8222681;28;20116;-72
2023/01/11 16:08:04;;;;;;;9.27;2.42;;;;;;;;;;8212347;28;20038;-71
2023/01/11 16:12:23;;;;;;;6.40;1.80;;;;;;;;;;8254304;28;20038;-71
2023/01/11 16:16:25;;;;;;;9.40;2.50;;;;;;;;;;8255699;28;20108;-71
2023/01/11 16:20:26;;;;;;;8.98;1.75;;;;;;;;;;8254596;28;20117;-72
2023/01/11 16:24:31;;;;;;;12.05;1.90;;;;;;;;;;8255563;28;20044;-71
2023/01/11 16:28:32;;;;;;;11.35;2.40;;;;;;;;;;8252982;28;20075;-71
2023/01/11 16:32:32;;;;;;;9.98;2.45;;;;;;;;;;8254258;28;20156;-72
2023/01/11 16:36:37;;;;;;;9.52;2.20;;;;;;;;;;8257685;28;20018;-71
2023/01/11 16:40:40;;;;;;;12.02;1.73;;;;;;;;;;8254887;28;20026;-73
2023/01/11 16:44:45;;;;;;;7.53;1.90;;;;;;;;;;8255131;28;20037;-72
2023/01/11 16:48:45;;;;;;;9.57;1.67;;;;;;;;;;8255220;28;20125;-72
2023/01/11 16:52:45;;;;;;;9.60;2.03;;;;;;;;;;8255473;28;20647;-72
2023/01/11 16:56:47;;;;;;;8.18;2.00;;;;;;;;;;8257697;28;20026;-72
2023/01/11 17:00:57;;;;;;;6.13;1.88;;;;;;;;;;8255049;28;20048;-73
2023/01/11 17:04:58;;;;;;;9.55;2.03;;;;;;;;;;8257236;28;20119;-73
2023/01/11 17:09:03;;;;;;;9.85;1.90;;;;;;;;;;8256506;28;20021;-72
2023/01/11 17:13:03;;;;;;;14.77;1.90;;;;;;;;;;8257409;28;20760;-73
2023/01/11 17:17:04;;;;;;;8.02;1.75;;;;;;;;;;8257616;28;20145;-73
2023/01/11 17:21:06;;;;;;;12.02;2.42;;;;;;;;;;8255822;28;20076;-73
2023/01/11 17:25:13;;;;;;;8.52;1.75;;;;;;;;;;8257773;28;20018;-73
2023/01/11 17:29:20;;;;;;;7.20;1.67;;;;;;;;;;8236788;28;20034;-72
2023/01/11 17:33:25;;;;;;;7.68;2.05;;;;;;;;;;8257134;28;20041;-72
2023/01/11 17:37:26;;;;;;;11.85;2.45;;;;;;;;;;8251776;28;20144;-73
2023/01/11 17:46:04;;;;;;;14.13;2.65;;;;;;;;;;8255060;28;20489;-73
2023/01/11 17:50:05;;;;;;;11.48;2.50;;;;;;;;;;8252796;28;20091;-73
2023/01/11 17:54:16;;;;;;;11.18;1.98;;;;;;;;;;8236820;28;20034;-72
2023/01/11 17:58:19;;;;;;;8.27;2.05;;;;;;;;;;8248544;28;20025;-73
2023/01/11 18:02:19;;;;;;;11.18;2.30;;;;;;;;;;8252231;28;20037;-73
2023/01/11 18:06:22;;;;;;;11.70;2.20;;;;;;;;;;8251270;28;20678;-73
2023/01/11 18:10:23;;;;;;;7.43;2.03;;;;;;;;;;8238255;28;20040;-73
2023/01/11 18:14:28;;;;;;;10.05;2.10;;;;;;;;;;8250387;28;20030;-73
2023/01/11 18:18:47;;;;;;;10.27;2.28;;;;;;;;;;8228612;28;20129;-73
2023/01/11 18:23:06;;;;;;;7.90;1.67;;;;;;;;;;8250804;28;20088;-73
2023/01/11 18:27:14;;;;;;;12.38;2.20;;;;;;;;;;8251143;28;20080;-73
2023/01/11 18:31:14;;;;;;;19.10;2.13;;;;;;;;;;8248329;28;20056;-73
2023/01/11 18:35:16;;;;;;;6.85;1.60;;;;;;;;;;8250223;28;20635;-72
2023/01/11 18:39:17;;;;;;;6.32;1.60;;;;;;;;;;8250021;28;20128;-71
2023/01/11 18:43:22;;;;;;;11.70;2.33;;;;;;;;;;8250791;28;20109;-72
2023/01/11 18:47:24;;;;;;;10.32;2.05;;;;;;;;;;8248325;28;20092;-72
2023/01/11 18:51:25;;;;;;;13.25;2.60;;;;;;;;;;8246671;28;20022;-72
2023/01/11 18:55:25;;;;;;;9.20;1.75;;;;;;;;;;8232178;28;20025;-73
2023/01/11 18:59:25;;;;;;;11.00;2.15;;;;;;;;;;8233697;28;20140;-73
2023/01/11 19:03:25;;;;;;;10.45;1.73;;;;;;;;;;8230426;28;20044;-73
2023/01/11 19:07:26;;;;;;;10.23;1.83;;;;;;;;;;8249914;28;20037;-73
2023/01/11 19:11:27;;;;;;;8.18;1.65;;;;;;;;;;8249653;28;20029;-73
2023/01/11 19:15:27;;;;;;;8.43;1.70;;;;;;;;;;8250960;28;20064;-73
2023/01/11 19:19:28;;;;;;;13.23;2.20;;;;;;;;;;8233217;28;20026;-73
2023/01/11 19:23:28;;;;;;;10.82;2.28;;;;;;;;;;8231603;28;20316;-73
2023/01/11 19:27:28;;;;;;;7.72;1.50;;;;;;;;;;8229976;28;20060;-73
2023/01/11 19:31:28;;;;;;;10.57;2.33;;;;;;;;;;8252182;28;20045;-73
2023/01/11 19:35:28;;;;;;;9.65;1.50;;;;;;;;;;8256134;28;20284;-73
2023/01/11 19:39:29;;;;;;;7.65;1.60;;;;;;;;;;8257373;28;20685;-73
2023/01/11 19:43:29;;;;;;;7.93;1.73;;;;;;;;;;8234261;28;20022;-73
2023/01/11 19:47:29;;;;;;;4.53;1.30;;;;;;;;;;8242863;28;20606;-73
2023/01/11 19:51:29;;;;;;;8.10;1.97;;;;;;;;;;8252108;28;20988;-72
2023/01/11 19:55:29;;;;;;;6.95;1.45;;;;;;;;;;8254828;28;20870;-73
2023/01/11 19:59:30;;;;;;;9.70;1.85;;;;;;;;;;8252002;28;20026;-72
2023/01/11 20:03:30;;;;;;;9.48;1.83;;;;;;;;;;8235627;28;20064;-73
2023/01/11 20:07:30;;;;;;;11.10;2.67;;;;;;;;;;8252564;28;20161;-73
2023/01/11 20:11:30;;;;;;;13.82;2.28;;;;;;;;;;8235010;28;20865;-73
2023/01/11 20:15:30;;;;;;;11.23;2.00;;;;;;;;;;8239621;28;20038;-73
2023/01/11 20:19:31;;;;;;;10.20;1.70;;;;;;;;;;8246414;28;20458;-73
2023/01/11 20:23:31;;;;;;;8.70;1.80;;;;;;;;;;8252588;28;20648;-73
2023/01/11 20:27:32;;;;;;;13.80;2.60;;;;;;;;;;8240082;28;20076;-73
2023/01/11 20:31:34;;;;;;;8.57;2.05;;;;;;;;;;8252747;28;20172;-74
2023/01/11 20:35:35;;;;;;;9.63;2.30;;;;;;;;;;8254100;28;20017;-73
2023/01/11 20:39:35;;;;;;;13.70;2.67;;;;;;;;;;8226007;28;20044;-73
2023/01/11 20:43:36;;;;;;;10.48;2.05;;;;;;;;;;8253555;28;20125;-73
2023/01/11 20:47:37;;;;;;;8.52;2.20;;;;;;;;;;8252976;28;20572;-74
2023/01/11 20:51:37;;;;;;;12.77;2.50;;;;;;;;;;8251449;28;20419;-73
2023/01/11 20:55:37;;;;;;;14.18;2.38;;;;;;;;;;8240433;28;20362;-73
2023/01/11 20:59:38;;;;;;;13.70;2.50;;;;;;;;;;8253493;28;20900;-73
2023/01/11 21:03:38;;;;;;;10.68;2.05;;;;;;;;;;8250487;28;20085;-73
2023/01/11 21:07:38;;;;;;;12.80;3.25;;;;;;;;;;8253684;28;20065;-73
2023/01/11 21:11:39;;;;;;;11.65;2.30;;;;;;;;;;8250029;28;20033;-73
2023/01/11 21:15:39;;;;;;;10.27;2.15;;;;;;;;;;8250046;28;20118;-73
2023/01/11 21:19:39;;;;;;;14.85;2.05;;;;;;;;;;8246710;28;20116;-73
2023/01/11 21:23:39;;;;;;;8.93;2.47;;;;;;;;;;8252897;28;20057;-73
2023/01/11 21:27:40;;;;;;;10.32;2.15;;;;;;;;;;8251204;28;21214;-73
2023/01/11 21:31:40;;;;;;;11.40;2.15;;;;;;;;;;8251795;28;20076;-73
2023/01/11 21:35:40;;;;;;;9.20;2.10;;;;;;;;;;8233654;28;20073;-73
2023/01/11 21:39:40;;;;;;;13.57;2.20;;;;;;;;;;8251405;28;20021;-73
2023/01/11 21:43:44;;;;;;;11.38;2.42;;;;;;;;;;8252679;28;20021;-73
2023/01/11 21:47:44;;;;;;;15.00;2.35;;;;;;;;;;8231028;28;20034;-73
2023/01/11 21:51:44;;;;;;;10.02;2.13;;;;;;;;;;8250683;28;20025;-74
2023/01/11 21:55:44;;;;;;;9.60;1.83;;;;;;;;;;8254041;28;20026;-73
2023/01/11 21:59:45;;;;;;;12.40;2.00;;;;;;;;;;8250252;28;20599;-73
2023/01/11 22:03:45;;;;;;;13.73;2.30;;;;;;;;;;8249548;28;20037;-73
2023/01/11 22:07:45;;;;;;;9.95;1.98;;;;;;;;;;8226545;28;21031;-72
2023/01/11 22:11:46;;;;;;;17.15;2.75;;;;;;;;;;8250388;28;20029;-72
2023/01/11 22:15:46;;;;;;;10.63;2.78;;;;;;;;;;8250407;28;20053;-72
2023/01/11 22:19:46;;;;;;;9.07;1.83;;;;;;;;;;8249071;28;20034;-73
2023/01/11 22:23:47;;;;;;;8.40;1.95;;;;;;;;;;8249851;28;20036;-72
2023/01/11 22:27:47;;;;;;;14.48;2.25;;;;;;;;;;8249062;28;20192;-73
2023/01/11 22:31:53;;;;;;;19.30;2.70;;;;;;;;;;8249986;28;20726;-73
2023/01/11 22:35:53;;;;;;;12.82;2.17;;;;;;;;;;8233591;28;20030;-73
2023/01/11 22:39:53;;;;;;;13.43;2.28;;;;;;;;;;8250969;28;20025;-73
2023/01/11 22:43:54;;;;;;;9.93;2.20;;;;;;;;;;8229822;28;20040;-72
2023/01/11 22:47:57;;;;;;;15.90;2.60;;;;;;;;;;8250015;28;20070;-72
2023/01/11 22:51:58;;;;;;;13.45;2.28;;;;;;;;;;8249171;28;20022;-73
2023/01/11 22:55:59;;;;;;;8.77;2.10;;;;;;;;;;8250611;28;20112;-72
2023/01/11 23:00:00;;;;;;;13.43;2.67;;;;;;;;;;8249351;28;20026;-73
2023/01/11 23:04:00;;;;;;;13.02;2.20;;;;;;;;;;8248837;28;20092;-73
2023/01/11 23:08:01;;;;;;;13.77;2.20;;;;;;;;;;8250512;28;20025;-72
2023/01/11 23:16:22;;;;;;;11.35;2.30;;;;;;;;;;8248325;28;20055;-73
2023/01/11 23:20:23;;;;;;;8.35;2.22;;;;;;;;;;8249180;28;20644;-72
2023/01/11 23:24:23;;;;;;;13.02;2.20;;;;;;;;;;8249739;28;20033;-72
2023/01/11 23:28:23;;;;;;;14.43;2.23;;;;;;;;;;8248718;28;20125;-73
2023/01/11 23:32:23;;;;;;;14.05;2.40;;;;;;;;;;8248528;28;20281;-73
2023/01/11 23:36:28;;;;;;;7.00;1.67;;;;;;;;;;8250229;28;20517;-73
2023/01/11 23:40:28;;;;;;;11.95;2.72;;;;;;;;;;8251857;28;20026;-73
2023/01/11 23:44:29;;;;;;;9.52;2.17;;;;;;;;;;8253399;28;20034;-72
2023/01/11 23:48:29;;;;;;;10.52;2.50;;;;;;;;;;8250671;28;20030;-73
2023/01/11 23:52:30;;;;;;;10.50;2.03;;;;;;;;;;8252318;28;20124;-72
2023/01/11 23:56:30;;;;;;;11.63;1.98;;;;;;;;;;8251938;28;20116;-72
